Time;durP1;ratioP1;P1;durP2;ratioP2;P2;SDS_P1;SDS_P2;PMS_P1;PMS_P2;Temp;Humidity;BMP_temperature;BMP_pressure;BME280_temperature;BME280_humidity;BME280_pressure;Samples;Min_cycle;Max_cycle;Signal;HPM_P1;HPM_P2
2023/12/01 00:03:27;;;;;;;14.95;9.82;;;;;;;3.04;63.54;98310.13;7659493;32;40768;-87
2023/12/01 00:07:44;;;;;;;14.68;9.68;;;;;;;3.05;63.52;98326.00;7659624;32;37717;-87
2023/12/01 00:12:00;;;;;;;21.65;10.18;;;;;;;3.25;62.71;98344.19;7683619;32;37073;-87
2023/12/01 00:16:16;;;;;;;18.37;10.27;;;;;;;3.16;63.10;98346.53;7685869;32;40194;-87
2023/12/01 00:20:33;;;;;;;16.77;10.35;;;;;;;3.20;62.58;98346.84;7685803;32;40754;-87
2023/12/01 00:24:51;;;;;;;17.48;10.30;;;;;;;3.14;62.94;98361.31;7685803;32;36930;-87
2023/12/01 00:29:07;;;;;;;15.98;10.10;;;;;;;3.32;62.45;98366.31;7685799;32;37172;-86
2023/12/01 00:33:24;;;;;;;17.00;11.07;;;;;;;3.38;61.85;98370.66;7685187;32;40022;-87
2023/12/01 00:37:40;;;;;;;17.45;10.20;;;;;;;3.05;63.30;98360.19;7685576;32;40782;-87
2023/12/01 00:41:56;;;;;;;17.33;9.95;;;;;;;3.34;62.44;98353.38;7675197;32;37976;-88
2023/12/01 00:46:13;;;;;;;16.70;10.35;;;;;;;3.18;63.09;98368.63;7659009;32;37560;-87
2023/12/01 00:50:29;;;;;;;18.23;11.27;;;;;;;3.30;62.63;98362.25;7659058;32;39517;-86
2023/12/01 00:54:45;;;;;;;18.62;11.43;;;;;;;3.13;63.28;98373.19;7659025;32;40046;-87
2023/12/01 00:59:02;;;;;;;18.33;10.70;;;;;;;3.12;63.89;98393.09;7658604;32;37778;-88
2023/12/01 01:03:18;;;;;;;18.65;9.80;;;;;;;3.03;64.35;98394.63;7659264;32;37119;-87
2023/12/01 01:07:34;;;;;;;20.12;11.48;;;;;;;3.18;63.69;98382.09;7659024;32;39381;-87
2023/12/01 01:11:51;;;;;;;17.80;9.75;;;;;;;3.25;63.53;98383.78;7659911;32;40785;-87
2023/12/01 01:16:09;;;;;;;15.00;9.25;;;;;;;3.27;63.56;98406.69;7658685;32;37889;-87
2023/12/01 01:20:26;;;;;;;22.67;12.57;;;;;;;3.24;63.72;98391.03;7675719;32;37152;-87
2023/12/01 01:24:42;;;;;;;17.45;8.63;;;;;;;3.22;63.63;98401.25;7684806;32;39426;-78
2023/12/01 01:28:59;;;;;;;19.37;10.73;;;;;;;3.22;65.52;98387.78;7684954;32;40065;-85
2023/12/01 01:33:15;;;;;;;24.50;11.85;;;;;;;3.42;64.03;98386.31;7684765;32;37904;-87
2023/12/01 01:37:31;;;;;;;17.87;10.32;;;;;;;2.70;66.09;98385.72;7692013;32;37973;-86
2023/12/01 01:41:48;;;;;;;18.17;10.10;;;;;;;2.99;64.69;98376.31;7693642;32;39179;-87
2023/12/01 01:46:09;;;;;;;20.37;11.25;;;;;;;2.92;64.94;98366.81;7684200;32;40039;-87
2023/12/01 01:50:26;;;;;;;16.73;10.38;;;;;;;3.07;64.50;98364.25;7684961;32;37899;-88
2023/12/01 01:54:43;;;;;;;19.12;9.48;;;;;;;2.97;65.02;98364.97;7684555;32;37949;-87
2023/12/01 01:59:00;;;;;;;19.52;10.05;;;;;;;3.13;64.57;98368.59;7696017;32;39369;-87
2023/12/01 02:03:18;;;;;;;23.25;10.20;;;;;;;3.13;64.78;98373.19;7675394;32;40028;-87
2023/12/01 02:07:35;;;;;;;20.37;9.75;;;;;;;3.30;64.21;98365.75;7695211;32;37863;-87
2023/12/01 02:11:51;;;;;;;19.17;10.48;;;;;;;2.93;65.22;98374.66;7684364;32;38168;-87
2023/12/01 02:16:08;;;;;;;17.83;9.93;;;;;;;3.48;63.85;98358.31;7684222;32;39983;-86
2023/12/01 02:20:25;;;;;;;19.17;10.95;;;;;;;2.94;65.25;98362.78;7683965;32;39994;-86
2023/12/01 02:24:41;;;;;;;17.50;10.48;;;;;;;3.44;63.62;98357.22;7683859;32;37926;-87
2023/12/01 02:28:57;;;;;;;21.25;9.07;;;;;;;3.45;63.47;98373.16;7683815;32;36966;-87
2023/12/01 02:33:15;;;;;;;22.30;10.40;;;;;;;3.20;64.50;98388.03;7683791;32;39067;-87
2023/12/01 02:37:31;;;;;;;16.87;9.98;;;;;;;3.45;63.88;98375.00;7683461;32;40019;-87
2023/12/01 02:41:48;;;;;;;23.05;10.18;;;;;;;3.29;64.17;98366.81;7683364;32;37869;-86
2023/12/01 02:46:04;;;;;;;19.80;8.98;;;;;;;3.46;63.99;98355.88;7683184;32;38006;-87
2023/12/01 02:50:21;;;;;;;17.92;9.40;;;;;;;3.25;64.37;98346.87;7666270;32;39366;-87
2023/12/01 02:54:37;;;;;;;20.60;10.43;;;;;;;3.51;63.56;98347.84;7657555;32;40729;-87
2023/12/01 02:58:54;;;;;;;17.92;9.85;;;;;;;3.33;63.85;98354.47;7660466;32;37678;-87
2023/12/01 03:03:10;;;;;;;17.00;8.98;;;;;;;3.28;64.31;98364.41;7661274;32;38673;-87
2023/12/01 03:07:27;;;;;;;16.50;9.40;;;;;;;3.38;64.00;98364.44;7672984;32;39271;-87
2023/12/01 03:11:44;;;;;;;13.43;8.80;;;;;;;3.08;65.13;98359.69;7686455;32;39969;-87
2023/12/01 03:16:00;;;;;;;13.02;8.93;;;;;;;3.25;64.49;98359.53;7686460;32;37739;-86
2023/12/01 03:20:17;;;;;;;15.27;9.40;;;;;;;3.17;64.64;98375.13;7686759;32;37898;-87
2023/12/01 03:24:33;;;;;;;19.33;8.95;;;;;;;3.06;65.05;98378.78;7686697;32;39248;-87
2023/12/01 03:28:49;;;;;;;17.85;9.18;;;;;;;3.06;64.97;98378.78;7686542;32;40645;-87
2023/12/01 03:33:06;;;;;;;16.83;9.52;;;;;;;3.28;64.56;98367.09;7687935;32;38640;-87
2023/12/01 03:37:24;;;;;;;14.52;9.40;;;;;;;3.44;63.92;98376.91;7713169;32;37285;-87
2023/12/01 03:41:40;;;;;;;13.85;8.18;;;;;;;3.54;63.56;98378.84;7702361;32;40751;-87
2023/12/01 03:45:56;;;;;;;17.33;10.05;;;;;;;3.23;64.15;98377.84;7686097;32;40049;-87
2023/12/01 03:50:13;;;;;;;14.43;8.77;;;;;;;3.48;63.54;98382.56;7686109;32;38116;-86
2023/12/01 03:54:29;;;;;;;14.27;8.68;;;;;;;3.61;63.15;98368.66;7686154;32;37990;-86
2023/12/01 03:58:46;;;;;;;15.43;8.93;;;;;;;3.46;63.59;98363.97;7686271;32;39053;-86
2023/12/01 04:03:02;;;;;;;16.80;9.13;;;;;;;3.53;63.39;98358.34;7686183;32;39614;-86
2023/12/01 04:07:18;;;;;;;14.65;8.27;;;;;;;3.35;64.00;98349.63;7685544;32;37836;-86
2023/12/01 04:11:36;;;;;;;15.02;8.48;;;;;;;3.45;63.82;98342.66;7683216;32;37207;-86
2023/12/01 04:15:52;;;;;;;12.85;7.65;;;;;;;3.54;63.13;98341.94;7685976;32;39349;-86
2023/12/01 04:20:20;;;;;;;14.30;8.50;;;;;;;3.32;63.57;98350.16;7685928;32;40044;-87
2023/12/01 04:24:38;;;;;;;16.50;8.85;;;;;;;3.51;63.37;98347.03;7685964;32;37537;-87
2023/12/01 04:28:54;;;;;;;14.43;7.90;;;;;;;3.61;63.26;98341.69;7685991;32;37263;-87
2023/12/01 04:33:13;;;;;;;14.60;7.87;;;;;;;3.47;63.71;98332.47;7686023;32;40325;-87
2023/12/01 04:37:31;;;;;;;13.68;7.72;;;;;;;3.38;63.96;98327.56;7685540;32;41329;-86
2023/12/01 04:41:50;;;;;;;13.00;8.13;;;;;;;3.56;63.33;98323.63;7685579;32;37913;-87
2023/12/01 04:46:07;;;;;;;11.88;7.18;;;;;;;3.51;63.37;98317.41;7685805;32;37087;-86
2023/12/01 04:50:25;;;;;;;13.85;7.78;;;;;;;3.53;63.25;98324.13;7685546;32;40034;-86
2023/12/01 04:54:41;;;;;;;13.62;8.00;;;;;;;3.51;63.41;98328.97;7685618;32;39944;-87
2023/12/01 04:58:58;;;;;;;15.00;8.30;;;;;;;3.41;63.64;98322.72;7685392;32;37582;-86
2023/12/01 05:03:14;;;;;;;12.70;7.70;;;;;;;3.66;63.07;98322.06;7685213;32;38110;-87
2023/12/01 05:07:31;;;;;;;14.27;8.48;;;;;;;3.73;62.82;98319.94;7685472;32;39270;-87
2023/12/01 05:11:47;;;;;;;14.50;8.38;;;;;;;3.61;63.23;98317.44;7684205;32;41336;-87
2023/12/01 05:16:04;;;;;;;12.50;7.65;;;;;;;3.62;63.39;98323.63;7685150;32;37671;-87
2023/12/01 05:20:23;;;;;;;13.40;8.32;;;;;;;3.64;63.36;98327.72;7685371;32;37466;-87
2023/12/01 05:24:39;;;;;;;14.23;8.02;;;;;;;3.65;63.26;98332.00;7685189;32;38287;-86
2023/12/01 05:28:55;;;;;;;13.90;8.25;;;;;;;3.65;63.27;98342.78;7684967;32;40861;-86
2023/12/01 05:33:12;;;;;;;12.75;8.40;;;;;;;3.84;62.85;98339.66;7685257;32;37769;-86
2023/12/01 05:37:28;;;;;;;15.05;8.82;;;;;;;3.69;63.23;98338.50;7684726;32;37151;-86
2023/12/01 05:41:44;;;;;;;13.75;8.07;;;;;;;3.50;63.81;98340.84;7661165;32;39413;-87
2023/12/01 05:46:01;;;;;;;15.98;9.02;;;;;;;3.46;64.05;98352.41;7658145;32;40023;-87
2023/12/01 05:50:23;;;;;;;13.62;6.85;;;;;;;3.56;63.70;98357.84;7658144;32;37942;-86
2023/12/01 05:54:39;;;;;;;26.00;14.95;;;;;;;3.71;63.02;98359.81;7658181;32;37321;-86
2023/12/01 05:58:55;;;;;;;28.85;15.40;;;;;;;3.41;64.08;98369.31;7658094;32;39416;-86
2023/12/01 06:03:12;;;;;;;16.50;9.52;;;;;;;3.73;63.25;98361.16;7658340;32;39592;-86
2023/12/01 06:07:28;;;;;;;19.87;10.50;;;;;;;3.64;63.43;98351.97;7664785;32;38321;-86
2023/12/01 06:11:45;;;;;;;22.73;10.70;;;;;;;3.54;63.69;98365.38;7675997;32;37539;-86
2023/12/01 06:16:01;;;;;;;12.20;7.93;;;;;;;3.47;64.07;98380.97;7657934;32;40000;-87
2023/12/01 06:20:20;;;;;;;17.20;7.85;;;;;;;3.56;63.85;98388.28;7657727;32;41374;-88
2023/12/01 06:24:37;;;;;;;12.63;7.28;;;;;;;3.62;63.71;98391.81;7657360;32;38685;-88
2023/12/01 06:28:55;;;;;;;13.30;7.68;;;;;;;3.71;63.26;98379.50;7671983;32;38113;-84
2023/12/01 06:33:12;;;;;;;16.50;8.25;;;;;;;3.54;63.75;98379.66;7681588;32;39452;-88
2023/12/01 06:37:28;;;;;;;15.05;8.27;;;;;;;3.71;63.34;98390.28;7686634;32;40824;-86
2023/12/01 06:41:46;;;;;;;14.00;8.25;;;;;;;3.69;63.58;98388.91;7683037;32;37813;-89
2023/12/01 06:46:02;;;;;;;13.90;7.55;;;;;;;3.92;62.90;98391.19;7664339;32;37247;-86
2023/12/01 06:50:21;;;;;;;16.45;9.40;;;;;;;3.87;62.96;98409.22;7686654;32;40133;-87
2023/12/01 06:54:38;;;;;;;20.67;10.70;;;;;;;3.57;63.86;98422.25;7686667;32;39556;-86
2023/12/01 06:58:55;;;;;;;20.67;10.52;;;;;;;3.67;63.49;98428.78;7679177;32;38555;-86
2023/12/01 07:03:11;;;;;;;15.82;9.18;;;;;;;3.64;63.63;98440.91;7660705;32;37442;-86
2023/12/01 07:07:30;;;;;;;13.45;8.32;;;;;;;3.45;64.21;98429.72;7671672;32;39875;-84
2023/12/01 07:11:46;;;;;;;12.82;7.65;;;;;;;3.41;64.63;98433.19;7657849;32;39086;-86
2023/12/01 07:16:09;;;;;;;11.77;6.93;;;;;;;3.73;63.70;98450.12;7668030;32;38185;-85
2023/12/01 07:20:26;;;;;;;12.35;7.07;;;;;;;3.77;63.55;98426.16;7667376;32;37983;-84
2023/12/01 07:24:43;;;;;;;10.95;6.68;;;;;;;3.69;63.80;98408.59;7679371;32;39373;-88
2023/12/01 07:29:06;;;;;;;12.27;7.15;;;;;;;3.88;63.25;98400.06;7686269;32;39985;-85
2023/12/01 07:33:22;;;;;;;13.60;8.07;;;;;;;4.09;62.50;98411.78;7686349;32;38691;-87
2023/12/01 07:37:43;;;;;;;13.88;9.20;;;;;;;4.07;62.48;98403.94;7661715;32;36999;-90
2023/12/01 07:41:59;;;;;;;16.05;8.73;;;;;;;3.93;62.84;98418.94;7659034;32;39362;-86
2023/12/01 07:46:15;;;;;;;14.13;8.57;;;;;;;4.01;62.38;98415.75;7659462;32;39973;-87
2023/12/01 07:50:32;;;;;;;14.45;8.45;;;;;;;4.17;64.45;98429.31;7659554;32;38060;-87
2023/12/01 07:54:48;;;;;;;17.05;9.65;;;;;;;4.14;63.10;98447.66;7667076;32;37454;-85
2023/12/01 07:59:06;;;;;;;16.05;9.20;;;;;;;4.10;62.75;98457.34;7668657;32;41631;-88
2023/12/01 08:03:23;;;;;;;17.00;9.48;;;;;;;4.26;62.14;98468.19;7679940;32;39820;-86
2023/12/01 08:07:40;;;;;;;21.05;11.48;;;;;;;4.09;62.52;98471.91;7696845;32;37763;-86
2023/12/01 08:12:05;;;;;;;19.20;10.52;;;;;;;4.00;62.93;98483.44;7675837;32;37236;-89
2023/12/01 08:16:22;;;;;;;17.98;10.18;;;;;;;4.01;62.90;98490.47;7681007;32;39068;-86
2023/12/01 08:20:41;;;;;;;17.10;10.15;;;;;;;3.99;62.87;98498.81;7663482;32;41220;-85
2023/12/01 08:24:57;;;;;;;15.70;9.68;;;;;;;3.69;63.84;98491.31;7684089;32;38019;-88
2023/12/01 08:29:14;;;;;;;14.98;8.82;;;;;;;3.67;64.12;98459.22;7669448;32;38399;-87
2023/12/01 08:33:35;;;;;;;14.43;8.43;;;;;;;3.83;63.61;98445.84;7660405;32;40059;-85
2023/12/01 08:37:52;;;;;;;16.80;10.18;;;;;;;3.87;63.49;98447.78;7680438;32;39946;-87
2023/12/01 08:42:08;;;;;;;14.75;8.73;;;;;;;3.89;63.47;98434.03;7674914;32;38689;-87
2023/12/01 08:46:25;;;;;;;13.65;8.30;;;;;;;4.13;62.56;98424.44;7693467;32;37219;-89
2023/12/01 08:50:42;;;;;;;17.92;10.27;;;;;;;4.00;62.94;98430.34;7678378;32;39020;-90
2023/12/01 08:54:59;;;;;;;16.25;10.23;;;;;;;4.12;62.48;98428.25;7668243;32;40786;-88
2023/12/01 08:59:17;;;;;;;17.15;10.68;;;;;;;4.25;62.06;98426.13;7671508;32;38532;-87
2023/12/01 09:03:34;;;;;;;17.85;11.32;;;;;;;3.98;62.71;98455.94;7674227;32;37062;-86
2023/12/01 09:07:52;;;;;;;20.70;11.43;;;;;;;4.07;62.30;98460.56;7691963;32;40457;-88
2023/12/01 09:12:08;;;;;;;15.40;10.00;;;;;;;3.67;63.77;98458.44;7660326;32;39900;-88
2023/12/01 09:16:25;;;;;;;14.40;9.07;;;;;;;4.07;62.57;98459.75;7681963;32;38086;-91
2023/12/01 09:20:41;;;;;;;17.20;9.30;;;;;;;3.81;63.41;98459.63;7687345;32;38194;-92
2023/12/01 09:24:58;;;;;;;15.93;9.45;;;;;;;3.86;63.46;98458.81;7684278;32;39791;-88
2023/12/01 09:29:14;;;;;;;15.57;9.63;;;;;;;3.90;63.60;98452.66;7658901;32;39888;-88
2023/12/01 09:33:30;;;;;;;14.25;9.55;;;;;;;4.26;62.70;98458.25;7668339;32;37921;-90
2023/12/01 09:37:48;;;;;;;14.25;9.05;;;;;;;4.19;62.63;98444.19;7665886;32;37032;-88
2023/12/01 09:42:06;;;;;;;13.65;7.85;;;;;;;4.47;62.05;98434.84;7659238;32;39150;-87
2023/12/01 09:46:26;;;;;;;14.07;7.85;;;;;;;4.26;62.50;98427.72;7669929;32;39366;-87
2023/12/01 09:50:44;;;;;;;12.45;7.25;;;;;;;4.39;62.18;98408.34;7682890;32;37917;-84
2023/12/01 09:55:00;;;;;;;15.00;7.80;;;;;;;4.35;62.15;98396.50;7680711;32;36242;-87
2023/12/01 09:59:25;;;;;;;16.15;10.48;;;;;;;4.60;61.53;98390.31;7684163;32;39398;-86
2023/12/01 10:03:42;;;;;;;17.83;11.07;;;;;;;4.32;62.01;98388.91;7675369;32;40558;-89
2023/12/01 10:07:58;;;;;;;17.20;10.18;;;;;;;4.29;62.22;98395.66;7683827;32;37969;-88
2023/12/01 10:12:15;;;;;;;16.20;10.00;;;;;;;4.45;61.48;98407.31;7695370;32;36594;-89
2023/12/01 10:16:38;;;;;;;16.25;9.93;;;;;;;4.12;62.86;98405.81;7683540;32;39474;-88
2023/12/01 10:21:02;;;;;;;15.30;8.30;;;;;;;4.10;62.59;98391.78;7695532;32;40023;-88
2023/12/01 10:25:21;;;;;;;13.07;8.57;;;;;;;4.50;61.64;98379.50;7686398;32;37967;-87
2023/12/01 10:29:41;;;;;;;13.20;7.75;;;;;;;4.29;61.90;98371.38;7685235;32;37978;-85
2023/12/01 10:33:57;;;;;;;11.90;7.45;;;;;;;4.41;62.55;98371.13;7684023;32;39312;-85
2023/12/01 10:38:14;;;;;;;13.70;8.40;;;;;;;4.51;61.62;98373.84;7687341;32;40848;-83
2023/12/01 10:42:34;;;;;;;11.35;7.15;;;;;;;4.69;61.38;98360.91;7670973;32;37752;-89
2023/12/01 10:46:52;;;;;;;11.50;6.47;;;;;;;4.48;62.52;98355.50;7667730;32;37584;-89
2023/12/01 10:51:10;;;;;;;10.30;6.78;;;;;;;4.70;61.39;98367.94;7656951;32;39386;-87
2023/12/01 10:55:27;;;;;;;13.75;7.35;;;;;;;4.59;61.73;98356.34;7656600;32;39999;-88
2023/12/01 10:59:51;;;;;;;13.25;7.68;;;;;;;4.49;61.90;98335.53;7656686;32;38019;-71
2023/12/01 11:04:08;;;;;;;10.90;6.53;;;;;;;4.40;62.37;98326.34;7691348;32;37229;-85
2023/12/01 11:08:37;;;;;;;10.60;6.87;;;;;;;4.64;62.85;98315.03;7693946;32;40154;-84
2023/12/01 11:13:17;;;;;;;11.25;7.47;;;;;;;4.62;62.15;98333.38;7676807;32;40776;-85
2023/12/01 11:17:33;;;;;;;17.50;10.63;;;;;;;4.72;61.72;98352.28;7658719;32;37965;-84
2023/12/01 11:21:56;;;;;;;20.95;11.57;;;;;;;4.59;61.64;98340.13;7676099;32;37787;-85
2023/12/01 11:26:13;;;;;;;21.37;12.32;;;;;;;4.47;61.99;98347.69;7677026;32;39426;-85
2023/12/01 11:30:29;;;;;;;15.45;9.73;;;;;;;4.27;62.83;98351.12;7686072;32;40222;-86
2023/12/01 11:35:06;;;;;;;13.68;9.13;;;;;;;4.45;62.22;98356.03;7684405;32;37981;-85
2023/12/01 11:39:29;;;;;;;13.98;8.18;;;;;;;4.37;62.69;98339.56;7685334;32;36924;-81
2023/12/01 11:44:04;;;;;;;13.13;8.38;;;;;;;4.54;62.18;98334.72;7676668;32;39038;-87
2023/12/01 11:48:20;;;;;;;11.88;7.28;;;;;;;4.34;62.60;98348.97;7673778;32;40629;-86
2023/12/01 11:52:37;;;;;;;11.45;6.43;;;;;;;4.76;61.58;98334.50;7670519;32;37846;-86
2023/12/01 11:56:56;;;;;;;10.57;7.47;;;;;;;4.59;62.17;98320.41;7659423;32;37177;-86
2023/12/01 12:01:13;;;;;;;11.40;7.00;;;;;;;4.61;61.96;98329.88;7676034;32;39457;-86
2023/12/01 12:05:30;;;;;;;9.93;7.28;;;;;;;4.59;61.87;98334.75;7684105;32;40538;-87
2023/12/01 12:09:46;;;;;;;9.77;5.65;;;;;;;4.64;61.65;98318.53;7662429;32;37871;-85
2023/12/01 12:14:06;;;;;;;11.50;6.40;;;;;;;4.44;62.16;98303.13;7677384;32;37329;-87
2023/12/01 12:18:27;;;;;;;11.35;6.75;;;;;;;4.54;62.13;98298.84;7659487;32;40111;-86
2023/12/01 12:22:43;;;;;;;11.00;7.05;;;;;;;4.44;62.69;98291.53;7659335;32;40860;-87
2023/12/01 12:27:00;;;;;;;9.52;5.95;;;;;;;4.32;62.93;98303.38;7658460;32;38546;-88
2023/12/01 12:31:18;;;;;;;8.73;5.40;;;;;;;4.47;62.40;98299.91;7667987;32;182187;-85
2023/12/01 12:35:35;;;;;;;8.45;5.20;;;;;;;4.47;62.51;98294.50;7684960;32;38352;-88
2023/12/01 12:39:51;;;;;;;9.52;5.68;;;;;;;4.49;62.31;98297.75;7685416;32;41206;-85
2023/12/01 12:44:11;;;;;;;8.43;5.25;;;;;;;4.25;63.47;98305.53;7685376;32;37650;-86
2023/12/01 12:48:27;;;;;;;7.90;5.07;;;;;;;4.14;63.88;98312.78;7683025;32;37361;-87
2023/12/01 12:52:44;;;;;;;7.80;5.10;;;;;;;4.34;63.20;98295.03;7683568;32;39205;-87
2023/12/01 12:57:02;;;;;;;8.93;5.05;;;;;;;4.12;64.04;98289.84;7684613;32;39674;-87
2023/12/01 13:01:20;;;;;;;7.70;4.87;;;;;;;4.07;64.07;98289.84;7685337;32;37821;-86
2023/12/01 13:05:36;;;;;;;7.78;5.47;;;;;;;4.18;64.10;98298.78;7685244;32;37063;-86
2023/12/01 13:09:53;;;;;;;7.30;5.30;;;;;;;4.40;63.23;98290.44;7685330;32;39418;-85
2023/12/01 13:14:09;;;;;;;7.07;5.00;;;;;;;4.03;64.63;98300.34;7684850;32;39994;-86
2023/12/01 13:18:26;;;;;;;8.70;5.03;;;;;;;4.10;64.57;98311.69;7696182;32;38771;-87
2023/12/01 13:22:43;;;;;;;7.93;5.53;;;;;;;4.23;64.13;98320.38;7684838;32;37291;-86
2023/12/01 13:26:59;;;;;;;11.30;6.18;;;;;;;4.08;64.73;98316.53;7684825;32;39383;-88
2023/12/01 13:31:15;;;;;;;9.88;6.62;;;;;;;4.00;64.73;98300.91;7684640;32;40046;-86
2023/12/01 13:35:35;;;;;;;12.93;8.63;;;;;;;4.14;64.51;98298.50;7684547;32;37544;-86
2023/12/01 13:39:51;;;;;;;9.80;6.43;;;;;;;4.10;64.60;98314.38;7683382;32;38107;-86
2023/12/01 13:44:08;;;;;;;10.38;6.32;;;;;;;3.98;67.02;98327.28;7684468;32;39047;-84
2023/12/01 13:48:26;;;;;;;10.75;6.50;;;;;;;4.26;65.45;98334.13;7684220;32;41094;-89
2023/12/01 13:52:43;;;;;;;10.00;6.70;;;;;;;4.44;64.29;98338.22;7683937;32;39294;-86
2023/12/01 13:57:00;;;;;;;9.48;6.10;;;;;;;4.35;64.48;98339.81;7684114;32;37115;-87
2023/12/01 14:01:16;;;;;;;9.07;5.05;;;;;;;4.64;63.71;98347.41;7684395;32;40109;-86
2023/12/01 14:05:33;;;;;;;9.02;5.28;;;;;;;4.63;63.62;98346.59;7683991;32;39892;-90
2023/12/01 14:09:50;;;;;;;8.90;4.90;;;;;;;4.37;64.79;98340.37;7683800;32;38609;-88
2023/12/01 14:14:06;;;;;;;8.82;5.03;;;;;;;4.62;64.05;98338.78;7683685;32;37111;-86
2023/12/01 14:18:22;;;;;;;6.30;4.72;;;;;;;4.74;63.17;98331.22;7683783;32;39400;-85
2023/12/01 18:58:53;;;;;;;;;;;;;;;-0.26;97.39;98282.66;7811670;32;266005;-79
2023/12/01 19:03:09;;;;;;;5.75;4.70;;;;;;;1.31;93.28;98265.88;7794567;32;40063;-78
2023/12/01 19:07:27;;;;;;;8.55;5.18;;;;;;;2.15;82.24;98256.63;7787085;32;37469;-80
2023/12/01 19:11:43;;;;;;;10.95;6.45;;;;;;;3.12;77.96;98255.75;7785097;32;37728;-81
2023/12/01 19:16:00;;;;;;;18.98;8.02;;;;;;;3.17;75.84;98275.47;7784010;32;38802;-81
2023/12/01 19:20:16;;;;;;;11.75;6.65;;;;;;;3.53;74.46;98293.69;7784207;32;40046;-79
2023/12/01 19:24:33;;;;;;;11.43;6.10;;;;;;;3.67;72.75;98286.72;7783900;32;37849;-79
2023/12/01 19:28:51;;;;;;;7.87;5.10;;;;;;;3.90;71.23;98284.69;7776371;32;37050;-81
2023/12/01 19:33:08;;;;;;;8.60;5.00;;;;;;;3.88;71.42;98287.63;7776312;32;39997;-80
2023/12/01 19:37:24;;;;;;;6.75;4.10;;;;;;;4.10;70.30;98279.31;7782702;32;40901;-80
2023/12/01 19:41:46;;;;;;;6.70;4.95;;;;;;;4.22;69.69;98262.09;7775008;32;37842;-80
2023/12/01 19:46:14;;;;;;;7.75;4.43;;;;;;;4.18;69.06;98263.72;7783451;32;36681;-81
2023/12/01 19:50:39;;;;;;;;;;;;;;;4.58;68.35;98256.72;7783153;32;39069;-80
2023/12/01 19:54:56;;;;;;;7.85;5.90;;;;;;;4.20;68.62;98231.88;7783360;32;40277;-80
2023/12/01 19:59:12;;;;;;;7.72;5.40;;;;;;;4.22;68.34;98249.41;7782490;32;37849;-79
2023/12/01 20:03:30;;;;;;;8.75;5.80;;;;;;;4.32;67.40;98229.72;7786191;32;36901;-79
2023/12/01 20:07:48;;;;;;;9.65;5.72;;;;;;;4.27;67.71;98216.25;7775720;32;39864;-79
2023/12/01 20:12:06;;;;;;;8.43;5.40;;;;;;;4.33;67.33;98250.25;7764394;32;40325;-81
2023/12/01 20:16:22;;;;;;;9.82;5.60;;;;;;;4.23;67.41;98264.53;7765494;32;37946;-81
2023/12/01 20:20:39;;;;;;;8.75;5.68;;;;;;;4.13;68.03;98245.63;7765498;32;36849;-78
2023/12/01 20:24:55;;;;;;;12.68;6.45;;;;;;;4.21;67.95;98242.41;7765474;32;39978;-79
2023/12/01 20:29:13;;;;;;;10.18;6.10;;;;;;;4.36;66.79;98244.28;7765422;32;39702;-81
2023/12/01 20:33:30;;;;;;;8.90;5.30;;;;;;;4.68;66.29;98235.13;7765990;32;37537;-80
2023/12/01 20:37:48;;;;;;;6.82;5.53;;;;;;;4.70;66.08;98232.97;7766176;32;36882;-79
2023/12/01 20:42:04;;;;;;;8.10;5.57;;;;;;;4.43;66.63;98223.28;7765982;32;39730;-83
2023/12/01 20:46:21;;;;;;;7.70;5.35;;;;;;;4.61;66.23;98229.19;7775130;32;39986;-80
2023/12/01 20:50:37;;;;;;;7.70;5.15;;;;;;;4.66;66.00;98232.69;7766030;32;37799;-79
2023/12/01 20:54:53;;;;;;;7.75;5.25;;;;;;;4.76;65.79;98213.00;7765959;32;37689;-80
2023/12/01 20:59:13;;;;;;;9.60;5.18;;;;;;;4.64;65.75;98207.03;7774742;32;39338;-79
2023/12/01 21:03:29;;;;;;;10.13;6.10;;;;;;;4.65;65.64;98214.06;7765920;32;40020;-79
2023/12/01 21:07:45;;;;;;;9.52;5.93;;;;;;;4.60;65.89;98208.69;7765823;32;38071;-78
2023/12/01 21:12:02;;;;;;;9.05;6.25;;;;;;;4.63;65.69;98218.94;7765929;32;37463;-82
2023/12/01 21:16:18;;;;;;;9.38;6.35;;;;;;;4.85;65.05;98219.44;7776116;32;39238;-82
2023/12/01 21:20:35;;;;;;;8.40;6.18;;;;;;;4.66;65.49;98216.50;7777854;32;40737;-82
2023/12/01 21:24:51;;;;;;;9.25;5.72;;;;;;;4.77;65.45;98217.28;7792816;32;37995;-82
2023/12/01 21:29:07;;;;;;;9.25;6.10;;;;;;;4.83;65.20;98218.09;7792825;32;36951;-83
2023/12/01 21:33:23;;;;;;;10.95;5.60;;;;;;;4.79;65.32;98212.44;7792951;32;39207;-81
2023/12/01 21:37:42;;;;;;;9.48;6.37;;;;;;;4.69;65.25;98193.53;7792265;32;39743;-81
2023/12/01 21:41:58;;;;;;;11.45;6.00;;;;;;;4.84;65.16;98190.81;7774170;32;37557;-84
2023/12/01 21:46:14;;;;;;;13.48;7.45;;;;;;;4.54;65.93;98190.88;7765857;32;37027;-83
2023/12/01 21:50:31;;;;;;;12.77;7.37;;;;;;;4.78;65.01;98186.53;7774069;32;39894;-81
2023/12/01 21:54:47;;;;;;;12.85;7.93;;;;;;;4.57;65.52;98190.31;7765101;32;40026;-82
2023/12/01 21:59:03;;;;;;;11.12;7.28;;;;;;;4.64;65.64;98191.69;7765252;32;37902;-82
2023/12/01 22:03:20;;;;;;;11.55;7.07;;;;;;;4.62;65.69;98179.53;7765394;32;36589;-82
2023/12/01 22:07:36;;;;;;;10.75;7.32;;;;;;;4.83;65.03;98194.63;7771738;32;39065;-82
2023/12/01 22:11:52;;;;;;;8.15;5.45;;;;;;;4.81;65.04;98180.59;7784676;32;39891;-82
2023/12/01 22:16:15;;;;;;;12.00;6.43;;;;;;;4.81;65.63;98175.19;7764907;32;38531;-80
2023/12/01 22:20:32;;;;;;;8.98;5.72;;;;;;;4.82;65.49;98179.47;7764755;32;36853;-83
2023/12/01 22:24:48;;;;;;;8.95;6.00;;;;;;;4.69;66.15;98175.47;7764788;32;39723;-83
2023/12/01 22:29:07;;;;;;;8.10;5.78;;;;;;;4.25;68.24;98188.72;7764920;32;39725;-82
2023/12/01 22:33:26;;;;;;;11.52;6.07;;;;;;;4.56;67.17;98173.31;7763761;32;36603;-84
2023/12/01 22:37:43;;;;;;;11.20;5.70;;;;;;;4.44;67.78;98172.81;7763794;32;37786;-83
2023/12/01 22:41:59;;;;;;;10.95;5.70;;;;;;;4.73;66.85;98164.94;7763718;32;39276;-82
2023/12/01 22:46:17;;;;;;;8.55;5.78;;;;;;;4.59;67.33;98144.97;7765738;32;39037;-82
2023/12/01 22:50:34;;;;;;;10.25;6.18;;;;;;;4.57;67.99;98147.97;7765298;32;38114;-82
2023/12/01 22:54:51;;;;;;;8.73;5.93;;;;;;;4.75;67.45;98127.66;7753689;32;37802;-82
2023/12/01 22:59:07;;;;;;;11.52;6.32;;;;;;;4.91;66.86;98131.13;7763250;32;39309;-80
2023/12/01 23:03:23;;;;;;;9.60;6.35;;;;;;;4.68;67.31;98116.34;7763941;32;40854;-80
2023/12/01 23:07:40;;;;;;;9.57;5.80;;;;;;;4.79;67.20;98122.53;7763954;32;37525;-81
2023/12/01 23:11:56;;;;;;;12.30;7.12;;;;;;;4.88;66.96;98135.19;7762165;32;36973;-81
2023/12/01 23:16:12;;;;;;;11.55;7.22;;;;;;;4.88;66.89;98116.28;7787950;32;39147;-80
2023/12/01 23:20:29;;;;;;;10.05;6.82;;;;;;;4.70;67.76;98114.97;7772618;32;39997;-79
2023/12/01 23:24:45;;;;;;;10.18;6.78;;;;;;;4.96;66.35;98112.19;7764399;32;37985;-80
2023/12/01 23:29:01;;;;;;;12.07;6.93;;;;;;;4.56;68.23;98108.56;7790732;32;36924;-80
2023/12/01 23:33:18;;;;;;;11.85;6.65;;;;;;;4.79;67.72;98101.72;7790502;32;39663;-80
2023/12/01 23:37:34;;;;;;;10.52;6.22;;;;;;;4.73;68.08;98113.63;7781884;32;39984;-82
2023/12/01 23:41:51;;;;;;;10.20;6.37;;;;;;;4.97;67.31;98110.34;7772407;32;37825;-80
2023/12/01 23:46:08;;;;;;;11.25;6.53;;;;;;;4.81;67.85;98102.28;7767028;32;37535;-81
2023/12/01 23:50:25;;;;;;;10.45;6.00;;;;;;;4.77;67.89;98105.81;7766910;32;39154;-81
2023/12/01 23:54:41;;;;;;;11.52;6.78;;;;;;;5.04;66.87;98098.13;7766644;32;40066;-80
2023/12/01 23:58:57;;;;;;;10.82;6.43;;;;;;;4.52;68.54;98088.59;7766611;32;36827;-81
